Time;durP1;ratioP1;P1;durP2;ratioP2;P2;SDS_P1;SDS_P2;PMS_P1;PMS_P2;Temp;Humidity;BMP_temperature;BMP_pressure;BME280_temperature;BME280_humidity;BME280_pressure;Samples;Min_cycle;Max_cycle;Signal;HPM_P1;HPM_P2
2022/05/22 00:02:07;;;;;;;4.97;3.60;;;;;;;13.24;66.66;100171.03;10509185;28;20024;-84
2022/05/22 00:07:21;;;;;;;5.70;3.65;;;;;;;13.30;66.47;100176.06;10510014;28;20032;-84
2022/05/22 00:12:33;;;;;;;5.30;3.38;;;;;;;12.94;68.36;100174.84;10494015;28;20055;-82
2022/05/22 00:17:38;;;;;;;8.18;3.75;;;;;;;12.87;68.71;100169.81;10509317;28;20028;-81
2022/05/22 00:22:41;;;;;;;5.40;3.67;;;;;;;12.87;68.47;100172.44;10509676;27;20040;-81
2022/05/22 00:27:43;;;;;;;5.47;3.90;;;;;;;13.12;67.66;100167.06;10508789;28;20035;-82
2022/05/22 00:32:50;;;;;;;7.07;3.40;;;;;;;13.10;67.49;100168.91;10504284;28;20035;-84
2022/05/22 00:37:52;;;;;;;8.60;4.03;;;;;;;13.08;67.85;100169.88;10591384;28;20390;-83
2022/05/22 00:42:54;;;;;;;7.85;4.05;;;;;;;13.01;68.05;100171.91;10501741;28;20088;-83
2022/05/22 00:47:58;;;;;;;7.22;3.85;;;;;;;13.07;68.24;100171.66;10493414;28;20044;-84
2022/05/22 00:53:04;;;;;;;9.88;4.20;;;;;;;12.96;69.28;100167.72;10475548;28;20040;-83
2022/05/22 00:58:13;;;;;;;8.15;4.43;;;;;;;13.17;68.40;100160.75;10471247;28;20509;-83
2022/05/22 01:03:28;;;;;;;8.32;4.18;;;;;;;13.06;68.83;100153.28;10471738;28;20070;-83
2022/05/22 01:08:33;;;;;;;6.47;3.97;;;;;;;13.11;68.87;100157.44;10482724;28;20058;-83
2022/05/22 01:13:45;;;;;;;8.10;3.55;;;;;;;13.01;70.50;100156.06;10551983;28;20040;-83
2022/05/22 01:18:56;;;;;;;6.50;4.18;;;;;;;13.02;69.97;100149.88;10475465;28;20115;-84
2022/05/22 01:24:08;;;;;;;5.95;4.68;;;;;;;13.16;69.05;100143.19;10532502;28;20044;-83
2022/05/22 01:29:31;;;;;;;5.57;4.47;;;;;;;13.17;69.36;100140.47;10469923;28;20165;-83
2022/05/22 01:34:34;;;;;;;7.18;4.78;;;;;;;13.19;69.21;100137.78;10568889;28;20027;-84
2022/05/22 01:39:38;;;;;;;6.20;3.87;;;;;;;13.26;68.93;100145.41;10466955;28;20039;-82
2022/05/22 01:44:40;;;;;;;5.68;5.07;;;;;;;13.14;69.06;100145.88;10475080;28;20047;-83
2022/05/22 01:49:44;;;;;;;7.07;5.00;;;;;;;12.99;69.70;100151.78;10460733;28;20098;-83
2022/05/22 01:54:46;;;;;;;4.95;4.47;;;;;;;12.92;70.31;100148.50;10469697;28;20059;-83
2022/05/22 02:00:00;;;;;;;6.22;4.53;;;;;;;12.99;69.92;100147.38;10506963;28;20024;-84
2022/05/22 02:05:06;;;;;;;7.55;5.55;;;;;;;12.87;70.28;100147.84;10568543;28;20054;-84
2022/05/22 02:10:19;;;;;;;5.22;4.55;;;;;;;13.00;70.03;100148.22;10477921;28;20040;-83
2022/05/22 02:15:25;;;;;;;6.18;4.93;;;;;;;12.97;70.11;100141.31;10514909;22;20079;-80
2022/05/22 02:20:28;;;;;;;5.82;4.78;;;;;;;12.93;70.59;100144.13;10499106;28;20037;-80
2022/05/22 02:25:35;;;;;;;6.88;4.97;;;;;;;12.89;70.87;100146.03;10554793;28;20398;-80
2022/05/22 02:30:44;;;;;;;6.03;5.22;;;;;;;12.86;71.23;100143.50;10465291;28;20044;-81
2022/05/22 02:35:47;;;;;;;8.30;5.03;;;;;;;12.84;71.30;100142.72;10547804;28;20052;-80
2022/05/22 02:40:55;;;;;;;6.45;4.72;;;;;;;12.99;70.94;100143.88;10550280;28;20103;-79
2022/05/22 02:45:59;;;;;;;6.03;5.20;;;;;;;12.85;71.35;100139.16;10568617;28;20042;-79
2022/05/22 02:51:01;;;;;;;6.13;4.82;;;;;;;12.73;71.76;100148.38;10558679;28;20036;-78
2022/05/22 02:56:12;;;;;;;7.63;6.13;;;;;;;12.68;72.07;100139.78;10574748;28;20105;-80
2022/05/22 03:01:34;;;;;;;6.10;5.60;;;;;;;12.55;72.63;100141.19;10562834;28;20043;-79
2022/05/22 03:06:40;;;;;;;7.55;5.90;;;;;;;12.55;72.82;100141.19;10560477;28;20044;-80
2022/05/22 03:11:42;;;;;;;10.32;6.72;;;;;;;12.70;71.98;100140.56;10542131;28;20043;-79
2022/05/22 03:16:46;;;;;;;6.15;5.55;;;;;;;12.49;73.59;100139.66;10539451;28;20044;-80
2022/05/22 03:22:05;;;;;;;6.75;5.47;;;;;;;12.46;73.58;100136.25;10537004;28;20455;-80
2022/05/22 03:27:12;;;;;;;6.45;5.00;;;;;;;12.23;75.14;100137.97;10538519;28;20139;-79
2022/05/22 03:32:14;;;;;;;6.20;5.60;;;;;;;12.31;74.67;100138.56;10559309;28;20035;-80
2022/05/22 03:37:16;;;;;;;7.05;5.60;;;;;;;12.55;73.17;100142.03;10541749;28;20139;-79
2022/05/22 03:42:18;;;;;;;6.53;5.63;;;;;;;12.40;74.22;100144.41;10540358;28;20044;-79
2022/05/22 03:47:20;;;;;;;6.93;5.47;;;;;;;12.27;75.93;100149.28;10557017;28;20048;-80
2022/05/22 03:52:43;;;;;;;5.70;5.10;;;;;;;12.14;76.34;100140.09;10540694;28;20111;-79
2022/05/22 03:58:00;;;;;;;6.43;5.65;;;;;;;11.93;77.30;100139.94;10559599;28;20071;-79
2022/05/22 04:03:03;;;;;;;6.88;6.18;;;;;;;11.93;78.46;100142.59;10567070;28;20044;-79
2022/05/22 04:08:06;;;;;;;7.38;6.10;;;;;;;11.84;78.64;100142.91;10558839;28;20047;-80
2022/05/22 04:13:16;;;;;;;6.47;5.15;;;;;;;12.09;76.94;100135.00;10562651;28;20028;-79
2022/05/22 04:18:18;;;;;;;7.07;5.38;;;;;;;12.32;75.74;100134.16;10577246;28;20044;-80
2022/05/22 04:28:42;;;;;;;6.22;5.10;;;;;;;12.13;76.73;100139.25;10566826;28;20078;-79
2022/05/22 04:33:53;;;;;;;7.22;6.13;;;;;;;12.34;75.66;100142.84;10552164;28;20125;-78
2022/05/22 04:38:55;;;;;;;6.50;5.78;;;;;;;12.29;75.99;100143.00;10566087;28;20052;-78
2022/05/22 04:43:56;;;;;;;8.40;6.35;;;;;;;12.32;77.00;100152.59;10564018;28;20073;-79
2022/05/22 04:48:58;;;;;;;6.03;5.53;;;;;;;12.72;74.69;100156.38;10565865;28;20055;-78
2022/05/22 04:54:00;;;;;;;6.07;5.45;;;;;;;12.76;75.23;100161.47;10552357;28;20044;-79
2022/05/22 04:59:12;;;;;;;6.93;6.25;;;;;;;12.95;73.16;100158.97;10559491;28;20046;-79
2022/05/22 05:04:14;;;;;;;7.00;6.05;;;;;;;13.16;72.29;100159.03;10584390;28;20052;-80
2022/05/22 05:09:41;;;;;;;7.85;6.05;;;;;;;13.36;71.66;100153.81;10549944;28;20048;-80
2022/05/22 05:14:49;;;;;;;7.65;5.45;;;;;;;13.49;71.64;100167.38;10551191;28;20046;-80
2022/05/22 05:19:51;;;;;;;5.22;4.70;;;;;;;13.43;72.38;100171.13;10562451;28;20050;-81
2022/05/22 05:24:53;;;;;;;8.40;5.90;;;;;;;13.45;73.04;100165.78;10573323;28;20048;-79
2022/05/22 05:29:59;;;;;;;6.97;5.93;;;;;;;13.65;71.89;100165.81;10572597;28;20051;-79
2022/05/22 05:35:07;;;;;;;8.73;6.13;;;;;;;13.85;70.81;100172.88;10553860;28;20456;-79
2022/05/22 05:40:09;;;;;;;5.95;5.35;;;;;;;13.77;72.52;100152.09;10530768;28;20048;-80
2022/05/22 05:45:17;;;;;;;7.63;6.45;;;;;;;14.26;69.42;100157.88;10557894;28;20156;-79
2022/05/22 05:50:32;;;;;;;5.15;4.40;;;;;;;14.90;66.71;100161.97;10538597;28;20401;-80
2022/05/22 05:55:44;;;;;;;6.88;5.60;;;;;;;14.97;66.49;100158.13;10541810;28;20054;-79
2022/05/22 06:01:24;;;;;;;7.47;5.63;;;;;;;14.94;67.39;100152.13;10545309;28;20036;-80
2022/05/22 06:06:26;;;;;;;6.45;4.57;;;;;;;15.57;64.92;100158.66;10540976;28;20044;-80
2022/05/22 06:11:32;;;;;;;6.05;4.60;;;;;;;15.39;65.68;100165.75;10532398;28;20040;-78
2022/05/22 06:16:52;;;;;;;7.15;4.82;;;;;;;15.68;64.76;100160.84;10540006;28;20048;-79
2022/05/22 06:21:55;;;;;;;;;;;;;;;15.31;65.52;100157.31;10564541;28;20071;-78
2022/05/22 06:26:57;;;;;;;6.35;4.90;;;;;;;15.53;66.27;100156.25;10543796;28;19920;-78
2022/05/22 06:32:17;;;;;;;5.50;4.28;;;;;;;15.84;62.94;100159.09;10514645;28;20138;-80
2022/05/22 06:37:33;;;;;;;8.23;5.45;;;;;;;15.24;65.60;100144.47;10543726;28;20147;-80
2022/05/22 06:43:01;;;;;;;8.25;4.20;;;;;;;15.71;64.09;100143.91;10542227;28;20047;-80
2022/05/22 06:48:23;;;;;;;6.00;4.18;;;;;;;16.68;58.80;100134.31;10534782;28;20132;-81
2022/05/22 06:53:39;;;;;;;5.23;3.43;;;;;;;16.40;60.90;100122.56;10532085;28;20093;-80
2022/05/22 06:59:00;;;;;;;7.05;4.75;;;;;;;17.59;60.03;100115.78;10554358;28;20056;-79
2022/05/22 07:04:27;;;;;;;10.23;2.80;;;;;;;17.78;56.58;100109.41;10531138;28;20097;-80
2022/05/22 07:10:02;;;;;;;4.47;2.50;;;;;;;18.27;55.04;100106.38;10525833;28;20044;-80
2022/05/22 07:15:36;;;;;;;3.78;2.33;;;;;;;17.70;53.63;100108.97;10542881;28;20046;-80
2022/05/22 07:20:56;;;;;;;4.28;2.50;;;;;;;17.53;54.58;100110.84;10557668;28;20135;-79
2022/05/22 07:26:06;;;;;;;7.15;3.22;;;;;;;16.86;58.35;100112.94;10526906;28;20044;-80
2022/05/22 07:31:28;;;;;;;3.80;2.10;;;;;;;17.51;55.49;100099.44;10559636;28;20040;-81
2022/05/22 07:36:53;;;;;;;6.18;2.47;;;;;;;17.25;58.09;100093.00;10548525;28;20047;-79
2022/05/22 07:42:13;;;;;;;5.32;3.00;;;;;;;17.64;55.39;100087.13;10575919;28;20056;-79
2022/05/22 07:47:30;;;;;;;5.68;2.22;;;;;;;17.81;53.82;100079.97;10565438;28;20067;-79
2022/05/22 07:52:48;;;;;;;5.10;2.58;;;;;;;18.44;52.65;100076.06;10551410;28;20044;-80
2022/05/22 07:58:12;;;;;;;6.38;2.58;;;;;;;18.56;52.26;100070.81;10548245;28;20497;-80
2022/05/22 08:03:20;;;;;;;4.32;1.70;;;;;;;18.22;52.19;100061.44;10545244;28;20044;-80
2022/05/22 08:08:28;;;;;;;5.03;1.88;;;;;;;18.56;51.39;100059.31;10545556;28;20044;-81
2022/05/22 08:13:47;;;;;;;5.32;2.55;;;;;;;18.25;51.60;100071.91;10564048;22;20407;-78
2022/05/22 08:18:49;;;;;;;3.20;1.35;;;;;;;18.01;49.22;100068.09;10532725;28;20059;-78
2022/05/22 08:23:50;;;;;;;4.28;1.63;;;;;;;18.01;50.35;100060.13;10532115;28;20047;-78
2022/05/22 08:28:56;;;;;;;5.25;1.88;;;;;;;18.34;48.90;100063.34;10533387;28;20046;-78
2022/05/22 08:33:59;;;;;;;5.57;2.20;;;;;;;18.04;49.19;100063.44;10516946;28;20126;-78
2022/05/22 08:39:01;;;;;;;5.10;1.20;;;;;;;19.00;44.66;100075.09;10531442;28;20040;-78
2022/05/22 08:44:29;;;;;;;6.40;1.58;;;;;;;18.90;44.58;100066.84;10551228;28;20044;-78
2022/05/22 08:49:47;;;;;;;4.47;1.45;;;;;;;18.92;47.98;100064.06;10542892;28;20094;-79
2022/05/22 08:55:03;;;;;;;2.55;1.20;;;;;;;18.70;46.27;100074.41;10554070;28;20059;-79
2022/05/22 09:00:05;;;;;;;3.00;1.20;;;;;;;18.48;47.59;100064.25;10552343;28;20413;-79
2022/05/22 09:05:14;;;;;;;3.33;1.10;;;;;;;19.16;45.18;100066.91;10556738;28;20403;-79
2022/05/22 09:10:24;;;;;;;3.92;1.27;;;;;;;18.61;46.28;100079.34;10534440;28;20107;-79
2022/05/22 09:15:42;;;;;;;3.10;1.38;;;;;;;18.60;46.72;100082.13;10536227;28;20450;-79
2022/05/22 09:21:03;;;;;;;4.03;1.45;;;;;;;17.86;48.59;100086.72;10552358;28;20046;-77
2022/05/22 09:26:24;;;;;;;4.05;1.50;;;;;;;17.90;49.11;100088.25;10547887;28;20048;-77
2022/05/22 09:31:44;;;;;;;3.55;1.50;;;;;;;17.50;50.56;100081.78;10549809;28;20040;-77
2022/05/22 09:37:07;;;;;;;2.70;1.10;;;;;;;17.74;48.85;100068.00;10552105;28;20043;-80
2022/05/22 09:42:47;;;;;;;4.95;1.63;;;;;;;17.62;49.90;100077.56;10550632;28;20040;-79
2022/05/22 09:48:18;;;;;;;3.00;1.40;;;;;;;17.51;50.73;100074.66;10533530;28;20054;-80
2022/05/22 09:53:48;;;;;;;2.88;1.00;;;;;;;18.88;45.64;100066.09;10550029;28;20065;-79
2022/05/22 09:59:37;;;;;;;2.78;1.02;;;;;;;18.79;45.50;100060.50;10530989;28;20495;-78
2022/05/22 10:04:53;;;;;;;4.18;1.35;;;;;;;19.23;48.39;100065.56;10536041;28;20524;-79
2022/05/22 10:10:13;;;;;;;2.63;0.90;;;;;;;18.60;47.29;100055.50;10516523;28;20055;-79
2022/05/22 10:15:28;;;;;;;4.72;1.13;;;;;;;18.33;46.99;100050.16;10558943;28;20051;-81
2022/05/22 10:21:00;;;;;;;3.00;0.93;;;;;;;19.22;44.77;100049.69;10556569;28;20048;-81
2022/05/22 10:26:13;;;;;;;2.33;1.02;;;;;;;19.17;43.50;100052.66;10546628;28;20048;-80
2022/05/22 10:31:23;;;;;;;2.03;0.75;;;;;;;18.38;45.64;100048.03;10558698;28;20074;-80
2022/05/22 10:36:30;;;;;;;2.33;1.23;;;;;;;19.31;44.01;100030.41;10550325;28;20108;-81
2022/05/22 10:47:04;;;;;;;3.72;1.10;;;;;;;20.90;41.79;100014.59;10554397;28;20530;-82
2022/05/22 10:52:09;;;;;;;6.35;1.67;;;;;;;21.15;42.85;100024.25;10559764;28;20044;-80
2022/05/22 10:57:22;;;;;;;4.07;1.30;;;;;;;21.75;41.51;100016.16;10560939;28;20093;-79
2022/05/22 11:02:26;;;;;;;3.28;1.40;;;;;;;20.59;42.20;100016.00;10558607;28;20054;-79
2022/05/22 11:07:34;;;;;;;2.88;1.10;;;;;;;19.20;45.57;100022.25;10539724;28;20048;-79
2022/05/22 11:12:36;;;;;;;3.22;1.05;;;;;;;19.99;44.32;100010.59;10550987;28;20040;-79
2022/05/22 11:17:44;;;;;;;3.38;1.15;;;;;;;21.15;42.38;99999.34;10568798;28;20036;-80
2022/05/22 11:22:58;;;;;;;3.47;1.17;;;;;;;21.49;41.36;100004.81;10554984;28;20498;-79
2022/05/22 11:28:30;;;;;;;2.30;0.77;;;;;;;21.03;40.63;99990.47;10555103;28;20052;-79
2022/05/22 11:33:46;;;;;;;4.72;1.20;;;;;;;21.67;41.04;99982.81;10556081;28;20542;-80
2022/05/22 11:39:24;;;;;;;2.45;0.90;;;;;;;21.24;41.36;99982.59;10557804;28;20048;-80
2022/05/22 11:44:56;;;;;;;2.05;0.85;;;;;;;21.69;38.41;99965.78;10550884;28;20052;-81
2022/05/22 11:50:26;;;;;;;2.63;0.88;;;;;;;21.60;39.63;99967.38;10560247;28;20447;-79
2022/05/22 11:55:58;;;;;;;2.35;0.85;;;;;;;21.70;39.25;99970.19;10564630;28;20066;-79
2022/05/22 12:01:19;;;;;;;1.73;0.90;;;;;;;20.88;41.41;99965.72;10579455;28;20409;-80
2022/05/22 12:06:49;;;;;;;2.17;0.95;;;;;;;20.61;41.92;99968.66;10564637;28;20085;-80
2022/05/22 12:12:08;;;;;;;4.05;1.10;;;;;;;21.68;39.08;99964.94;10537869;28;20044;-82
2022/05/22 12:17:21;;;;;;;3.22;1.17;;;;;;;21.33;39.32;99963.19;10552997;28;20051;-80
2022/05/22 12:27:47;;;;;;;2.92;0.80;;;;;;;20.94;39.37;99960.88;10568837;28;20047;-80
2022/05/22 12:32:54;;;;;;;3.70;0.80;;;;;;;20.80;42.21;99951.25;10568244;28;20048;-80
2022/05/22 12:38:05;;;;;;;2.58;0.75;;;;;;;21.63;38.28;99962.63;10549446;28;20505;-80
2022/05/22 12:43:10;;;;;;;3.15;1.00;;;;;;;22.46;36.90;99941.75;10564361;28;20052;-79
2022/05/22 12:48:33;;;;;;;2.35;0.90;;;;;;;21.75;37.98;99947.44;10568376;28;20048;-78
2022/05/22 12:53:42;;;;;;;3.25;0.90;;;;;;;20.40;40.89;99944.38;10541989;28;20040;-80
2022/05/22 12:58:54;;;;;;;3.38;0.95;;;;;;;21.08;39.90;99942.84;10555095;28;20373;-79
2022/05/22 13:04:06;;;;;;;2.40;0.80;;;;;;;21.97;38.55;99935.03;10533624;28;20048;-80
2022/05/22 13:09:32;;;;;;;3.22;0.85;;;;;;;22.34;38.63;99931.06;10535070;28;20032;-80
2022/05/22 13:14:51;;;;;;;2.57;0.97;;;;;;;21.80;38.78;99929.19;10550104;28;20442;-81
2022/05/22 13:19:55;;;;;;;3.28;0.85;;;;;;;20.87;39.81;99926.63;10532811;28;20044;-81
2022/05/22 13:24:57;;;;;;;1.60;0.80;;;;;;;21.12;38.73;99914.06;10534852;28;20048;-80
2022/05/22 13:30:04;;;;;;;2.80;0.75;;;;;;;21.87;37.12;99919.72;10516772;28;20044;-80
2022/05/22 13:35:16;;;;;;;1.65;0.77;;;;;;;21.45;38.32;99905.25;10576055;28;20083;-80
2022/05/22 13:40:56;;;;;;;1.95;0.70;;;;;;;21.43;38.17;99907.22;10548102;28;20477;-80
2022/05/22 13:46:16;;;;;;;;;;;;;;;21.05;39.54;99905.66;10532376;28;20055;-82
2022/05/22 13:57:13;;;;;;;2.83;0.82;;;;;;;21.14;36.84;99902.28;10553877;28;20393;-81
2022/05/22 14:02:20;;;;;;;2.28;1.00;;;;;;;21.28;37.72;99895.00;10551341;28;20052;-82
2022/05/22 14:07:29;;;;;;;2.97;0.80;;;;;;;21.75;36.05;99893.94;10548658;28;20459;-82
2022/05/22 14:12:40;;;;;;;3.65;0.85;;;;;;;21.28;38.39;99884.31;10532469;28;20048;-83
2022/05/22 14:17:43;;;;;;;4.28;1.05;;;;;;;21.60;38.73;99884.44;10541809;28;20052;-85
2022/05/22 14:22:48;;;;;;;2.00;0.60;;;;;;;21.80;37.25;99870.34;10554566;28;20047;-84
2022/05/22 14:27:53;;;;;;;2.05;0.80;;;;;;;22.12;35.62;99857.00;10560768;28;20098;-84
2022/05/22 14:33:10;;;;;;;3.65;0.90;;;;;;;21.92;37.13;99858.63;10586697;28;20040;-84
2022/05/22 14:38:23;;;;;;;1.58;0.60;;;;;;;21.67;37.16;99857.09;10578857;28;20401;-85
2022/05/22 14:43:35;;;;;;;1.98;0.50;;;;;;;22.24;36.67;99846.28;10560778;28;20044;-83
2022/05/22 14:48:39;;;;;;;2.47;0.70;;;;;;;21.57;37.39;99853.47;10556586;28;20101;-83
2022/05/22 14:53:45;;;;;;;1.67;0.80;;;;;;;22.26;35.71;99847.84;10574225;28;20047;-84
2022/05/22 14:58:58;;;;;;;2.40;0.95;;;;;;;22.48;34.52;99843.38;10555247;28;20043;-83
2022/05/22 15:04:03;;;;;;;2.25;0.80;;;;;;;22.24;34.98;99844.44;10555966;28;20040;-85
2022/05/22 15:09:05;;;;;;;2.42;0.93;;;;;;;22.15;35.32;99835.34;10571029;28;20040;-85
2022/05/22 15:14:15;;;;;;;2.05;0.80;;;;;;;21.52;35.81;99844.13;10568910;28;20056;-85
2022/05/22 15:30:15;;;;;;;2.33;0.70;;;;;;;23.01;33.64;99811.16;10565816;28;20048;-85
2022/05/22 15:35:22;;;;;;;2.15;0.70;;;;;;;23.06;33.22;99812.44;10530729;28;20070;-85
2022/05/22 15:40:24;;;;;;;1.33;0.43;;;;;;;22.83;33.85;99811.72;10567303;28;20046;-85
2022/05/22 15:45:25;;;;;;;2.22;1.13;;;;;;;23.09;33.88;99800.63;10548619;28;20032;-82
2022/05/22 15:50:45;;;;;;;2.83;0.70;;;;;;;22.47;33.99;99805.03;10569799;28;20056;-83
2022/05/22 15:55:47;;;;;;;2.33;0.90;;;;;;;22.44;33.26;99799.91;10571761;28;20055;-83
2022/05/22 16:00:49;;;;;;;7.03;0.80;;;;;;;22.76;33.79;99797.19;10575842;28;20040;-84
2022/05/22 16:05:50;;;;;;;2.05;0.80;;;;;;;22.45;33.49;99796.28;10575952;28;20031;-83
2022/05/22 16:10:52;;;;;;;3.55;0.88;;;;;;;22.21;33.27;99792.97;10594247;28;20058;-84
2022/05/22 16:15:56;;;;;;;3.70;3.15;;;;;;;21.14;34.99;99800.72;10581494;28;20435;-84
2022/05/22 16:20:58;;;;;;;2.97;1.60;;;;;;;20.90;35.79;99797.31;10579589;28;20074;-84
2022/05/22 16:26:00;;;;;;;3.20;0.85;;;;;;;20.91;35.31;99791.00;10557897;28;20048;-84
2022/05/22 16:31:03;;;;;;;1.70;0.70;;;;;;;21.01;34.86;99791.13;10579707;28;20469;-84
2022/05/22 16:36:05;;;;;;;1.33;0.68;;;;;;;21.01;35.21;99783.09;10559910;28;20100;-84
2022/05/22 16:41:07;;;;;;;1.35;0.55;;;;;;;20.77;35.14;99788.56;10579767;28;20048;-84
2022/05/22 16:46:28;;;;;;;1.95;0.63;;;;;;;20.56;35.14;99785.72;10558848;28;20040;-84
2022/05/22 16:56:53;;;;;;;14.63;13.52;;;;;;;19.86;37.25;99790.03;10559620;28;20117;-83
2022/05/22 17:01:55;;;;;;;5.80;2.08;;;;;;;19.94;37.22;99788.63;10575606;28;20044;-84
2022/05/22 17:06:59;;;;;;;3.28;0.70;;;;;;;19.83;37.84;99790.28;10574764;28;20078;-83
2022/05/22 17:12:02;;;;;;;2.72;0.60;;;;;;;19.76;38.28;99798.84;10556089;28;20378;-83
2022/05/22 17:17:06;;;;;;;19.27;1.48;;;;;;;19.74;37.59;99798.94;10552486;28;20550;-84
2022/05/22 17:22:12;;;;;;;4.78;0.90;;;;;;;19.38;38.69;99805.97;10544392;28;20040;-85
2022/05/22 17:27:21;;;;;;;5.13;0.70;;;;;;;19.40;37.75;99801.38;10543311;28;20075;-85
2022/05/22 17:32:24;;;;;;;4.60;0.95;;;;;;;19.08;38.74;99805.47;10558480;28;20057;-83
2022/05/22 17:37:31;;;;;;;13.98;1.92;;;;;;;19.19;39.50;99812.72;10553414;28;20048;-84
2022/05/22 17:42:33;;;;;;;1.38;0.60;;;;;;;19.06;37.60;99810.06;10556601;28;20078;-84
2022/05/22 17:47:35;;;;;;;2.47;0.90;;;;;;;18.77;38.30;99806.75;10533624;28;20079;-84
2022/05/22 17:52:38;;;;;;;2.90;1.05;;;;;;;18.73;38.23;99805.31;10567863;28;20093;-85
2022/05/22 17:57:41;;;;;;;1.30;0.70;;;;;;;18.55;39.22;99797.59;10569354;28;20131;-84
2022/05/22 18:02:43;;;;;;;2.58;0.80;;;;;;;18.54;40.26;99798.53;10569933;28;20389;-85
2022/05/22 18:07:46;;;;;;;2.67;0.90;;;;;;;18.47;39.95;99797.25;10550154;28;20040;-86
2022/05/22 18:18:08;;;;;;;3.60;1.17;;;;;;;18.33;40.90;99794.69;10565139;28;20044;-83
2022/05/22 18:23:11;;;;;;;3.67;0.85;;;;;;;18.15;41.29;99792.31;10548801;28;20048;-85
2022/05/22 18:28:19;;;;;;;2.95;1.10;;;;;;;18.04;42.27;99791.31;10547242;28;20052;-85
2022/05/22 18:33:21;;;;;;;1.90;1.02;;;;;;;17.94;42.76;99796.38;10553855;28;20082;-83
2022/05/22 18:38:23;;;;;;;2.38;1.38;;;;;;;17.88;46.26;99791.47;10552062;28;20052;-83
2022/05/22 18:43:25;;;;;;;2.60;1.20;;;;;;;17.63;47.30;99785.06;10552950;28;20040;-84
2022/05/22 18:48:33;;;;;;;3.42;1.30;;;;;;;17.60;46.55;99787.91;10556526;28;20060;-81
2022/05/22 18:53:43;;;;;;;5.05;1.50;;;;;;;17.71;45.19;99789.00;10567802;28;20043;-81
2022/05/22 18:58:52;;;;;;;2.15;1.05;;;;;;;17.36;46.45;99789.50;10531748;28;20048;-82
2022/05/22 19:03:55;;;;;;;3.97;1.40;;;;;;;17.00;49.27;99796.19;10560704;28;20043;-82
2022/05/22 19:09:00;;;;;;;2.40;1.33;;;;;;;16.65;50.76;99796.50;10543901;28;20085;-84
2022/05/22 19:14:13;;;;;;;2.35;1.60;;;;;;;16.64;50.33;99791.28;10550746;28;20413;-83
2022/05/22 19:19:33;;;;;;;3.28;1.83;;;;;;;16.70;49.86;99790.06;10558934;28;20047;-82
2022/05/22 19:24:43;;;;;;;3.55;1.60;;;;;;;16.58;50.04;99796.97;10526992;28;20055;-82
2022/05/22 19:29:48;;;;;;;3.67;1.50;;;;;;;16.30;50.59;99792.47;10564738;28;20044;-84
2022/05/22 19:34:51;;;;;;;2.80;1.30;;;;;;;16.24;51.42;99796.31;10568867;28;20052;-83
2022/05/22 19:39:52;;;;;;;3.17;1.50;;;;;;;16.10;51.69;99794.47;10574689;28;20064;-84
2022/05/22 19:44:56;;;;;;;1.80;1.30;;;;;;;16.02;52.54;99783.44;10577052;28;20062;-83
2022/05/22 19:49:59;;;;;;;4.05;1.55;;;;;;;15.87;53.31;99789.66;10570202;28;20056;-84
2022/05/22 20:00:31;;;;;;;2.45;1.65;;;;;;;15.24;55.89;99787.84;10554163;28;20048;-81
2022/05/22 20:05:35;;;;;;;3.67;2.08;;;;;;;15.25;56.29;99789.56;10568382;28;20497;-81
2022/05/22 20:10:36;;;;;;;5.85;2.30;;;;;;;15.11;56.39;99787.66;10544116;28;20040;-82
2022/05/22 20:15:41;;;;;;;1.85;1.52;;;;;;;15.21;55.96;99785.38;10587759;22;20133;-80
2022/05/22 20:20:46;;;;;;;4.45;2.25;;;;;;;15.18;56.17;99784.66;10470578;28;20047;-81
2022/05/22 20:25:49;;;;;;;3.05;1.63;;;;;;;14.93;55.99;99782.50;10477853;28;20458;-79
2022/05/22 20:30:53;;;;;;;2.70;2.22;;;;;;;14.51;58.84;99783.81;10467127;28;20048;-80
2022/05/22 20:35:56;;;;;;;4.75;2.58;;;;;;;14.72;58.00;99784.50;10552845;28;20089;-77
2022/05/22 20:41:00;;;;;;;2.58;1.98;;;;;;;14.56;58.07;99780.00;10464226;28;20048;-77
2022/05/22 20:46:08;;;;;;;3.63;2.35;;;;;;;14.48;58.71;99783.97;10546926;28;20039;-78
2022/05/22 20:51:10;;;;;;;3.08;2.45;;;;;;;14.25;59.73;99777.19;10446188;28;20497;-78
2022/05/22 21:01:45;;;;;;;4.28;2.15;;;;;;;14.33;59.59;99777.66;10546078;28;20120;-78
2022/05/22 21:06:47;;;;;;;2.55;2.08;;;;;;;14.21;59.39;99781.81;10546029;28;20090;-78
2022/05/22 21:11:52;;;;;;;3.28;2.03;;;;;;;14.11;59.66;99784.03;10546063;28;20101;-78
2022/05/22 21:16:54;;;;;;;4.97;2.80;;;;;;;13.80;62.42;99776.78;10546556;28;20048;-78
2022/05/22 21:21:56;;;;;;;2.17;1.98;;;;;;;13.52;63.13;99779.06;10547211;28;20047;-78
2022/05/22 21:32:19;;;;;;;5.90;2.42;;;;;;;13.70;63.04;99772.03;10549740;28;20036;-78
2022/05/22 21:37:20;;;;;;;3.03;2.42;;;;;;;13.53;63.66;99765.78;10543460;28;20040;-77
2022/05/22 21:42:22;;;;;;;4.18;2.50;;;;;;;13.42;63.88;99767.25;10546441;28;20044;-78
2022/05/22 21:47:24;;;;;;;3.65;2.38;;;;;;;13.24;64.93;99764.53;10461187;28;20060;-78
2022/05/22 21:52:25;;;;;;;6.57;2.00;;;;;;;13.26;65.44;99769.72;10457132;28;20048;-78
2022/05/22 21:57:29;;;;;;;3.17;2.15;;;;;;;13.24;64.94;99758.41;10543686;28;20039;-78
2022/05/22 22:02:32;;;;;;;3.00;1.77;;;;;;;13.21;65.29;99763.78;10457499;28;20116;-78
2022/05/22 22:07:33;;;;;;;2.05;1.60;;;;;;;13.11;65.09;99763.38;10570254;28;20532;-78
2022/05/22 22:12:35;;;;;;;3.63;2.13;;;;;;;13.22;65.01;99771.66;10578724;28;20074;-78
2022/05/22 22:17:36;;;;;;;2.45;1.65;;;;;;;12.85;67.28;99769.81;10547004;28;20105;-78
2022/05/22 22:22:38;;;;;;;2.40;2.05;;;;;;;12.55;69.51;99767.63;10461953;28;20048;-78
2022/05/22 22:27:39;;;;;;;4.13;2.25;;;;;;;12.61;69.15;99766.50;10546220;28;20135;-78
2022/05/22 22:32:41;;;;;;;3.92;2.40;;;;;;;12.73;68.86;99759.81;10459353;28;20496;-78
2022/05/22 22:37:43;;;;;;;3.30;1.90;;;;;;;12.88;68.56;99773.19;10458622;28;20048;-77
2022/05/22 22:42:45;;;;;;;6.35;2.10;;;;;;;12.65;69.11;99759.31;10543387;28;20078;-77
2022/05/22 22:47:46;;;;;;;3.20;1.88;;;;;;;12.40;70.74;99756.91;10463192;28;20062;-77
2022/05/22 22:52:48;;;;;;;3.97;2.50;;;;;;;12.35;70.44;99760.59;10548542;28;20443;-77
2022/05/22 22:58:05;;;;;;;2.90;1.98;;;;;;;12.50;70.14;99758.22;10548600;28;20082;-77
2022/05/22 23:03:07;;;;;;;;;;;;;;;12.41;69.89;99763.91;10549450;28;20075;-77
2022/05/22 23:08:10;;;;;;;4.60;2.72;;;;;;;12.07;71.95;99770.59;10548432;28;20019;-77
2022/05/22 23:13:12;;;;;;;3.15;2.47;;;;;;;11.95;73.52;99766.69;10548118;28;20040;-77
2022/05/22 23:18:14;;;;;;;4.95;2.10;;;;;;;12.29;71.11;99770.53;10461242;28;20129;-77
2022/05/22 23:23:16;;;;;;;3.08;1.95;;;;;;;11.95;72.68;99769.31;10547937;28;20044;-77
2022/05/22 23:28:18;;;;;;;3.47;1.85;;;;;;;12.22;71.61;99759.44;10547142;28;20581;-76
2022/05/22 23:33:20;;;;;;;2.53;1.65;;;;;;;12.07;71.60;99766.19;10462000;28;20497;-77
2022/05/22 23:38:27;;;;;;;3.20;1.75;;;;;;;11.86;73.67;99760.06;10549715;28;20478;-77
2022/05/22 23:43:28;;;;;;;;;;;;;;;11.72;74.77;99764.97;10550683;28;20044;-77
2022/05/22 23:48:30;;;;;;;3.45;1.83;;;;;;;12.00;72.97;99759.47;10550919;28;20042;-77
2022/05/22 23:53:33;;;;;;;3.03;1.75;;;;;;;12.03;72.35;99753.19;10466637;28;20048;-77
2022/05/22 23:58:34;;;;;;;3.90;1.85;;;;;;;11.90;72.76;99750.22;10467841;28;20059;-77
